createdAt,value
2022-09-15T00:01:03.119Z,97425.28
2022-09-15T00:03:29.785Z,97422.13
2022-09-15T00:05:56.628Z,97425.09
2022-09-15T00:08:24.238Z,97427.41
2022-09-15T00:10:58.291Z,97431.75
2022-09-15T00:13:25.835Z,97427.06
2022-09-15T00:15:53.259Z,97422.25
2022-09-15T00:18:20.307Z,97430.56
2022-09-15T00:20:46.999Z,97436.03
2022-09-15T00:23:15.964Z,97432.38
2022-09-15T00:25:53.311Z,97437.88
2022-09-15T00:28:22.696Z,97430.41
2022-09-15T00:30:54.655Z,97429.91
2022-09-15T00:33:23.163Z,97435.03
2022-09-15T00:35:53.326Z,97433.06
2022-09-15T00:38:20.939Z,97438.00
2022-09-15T00:40:52.724Z,97446.28
2022-09-15T00:43:42.264Z,97444.31
2022-09-15T00:46:10.258Z,97441.78
2022-09-15T00:48:43.203Z,97442.47
2022-09-15T00:51:14.500Z,97445.31
2022-09-15T00:53:42.287Z,97444.63
2022-09-15T00:56:14.439Z,97446.63
2022-09-15T00:58:50.135Z,97445.13
2022-09-15T01:01:17.227Z,97444.63
2022-09-15T01:03:44.177Z,97446.63
2022-09-15T01:06:50.191Z,97443.31
2022-09-15T01:09:26.846Z,97442.28
2022-09-15T01:11:53.526Z,97436.91
2022-09-15T01:14:20.066Z,97443.34
2022-09-15T01:17:03.780Z,97443.25
2022-09-15T01:19:46.535Z,97443.75
2022-09-15T01:22:34.889Z,97444.63
2022-09-15T01:25:51.296Z,97445.13
2022-09-15T01:29:12.807Z,97443.78
2022-09-15T01:32:16.346Z,97452.84
2022-09-15T01:35:00.688Z,97449.53
2022-09-15T01:37:36.840Z,97449.66
2022-09-15T01:40:05.185Z,97446.34
2022-09-15T01:42:34.797Z,97440.56
2022-09-15T01:45:09.182Z,97455.16
2022-09-15T01:47:37.406Z,97447.53
2022-09-15T01:50:13.669Z,97457.50
2022-09-15T01:52:48.801Z,97443.88
2022-09-15T01:55:25.184Z,97454.47
2022-09-15T01:57:51.903Z,97451.84
2022-09-15T02:00:18.474Z,97444.53
2022-09-15T02:02:58.733Z,97451.81
2022-09-15T02:05:44.895Z,97453.50
2022-09-15T02:08:31.618Z,97453.81
2022-09-15T02:11:14.663Z,97460.94
2022-09-15T02:14:11.400Z,97460.75
2022-09-15T02:16:43.675Z,97467.03
2022-09-15T02:19:31.090Z,97463.69
2022-09-15T02:22:11.006Z,97467.31
2022-09-15T02:24:49.374Z,97461.78
2022-09-15T02:27:25.228Z,97463.34
2022-09-15T02:30:00.995Z,97460.66
2022-09-15T02:32:31.134Z,97460.31
2022-09-15T02:35:01.678Z,97453.66
2022-09-15T02:37:28.590Z,97463.84
2022-09-15T02:39:58.965Z,97464.47
2022-09-15T02:42:32.007Z,97460.16
2022-09-15T02:45:01.331Z,97462.56
2022-09-15T02:47:28.706Z,97456.22
2022-09-15T02:49:55.926Z,97454.41
2022-09-15T02:52:22.549Z,97456.84
2022-09-15T02:54:50.298Z,97457.97
2022-09-15T02:57:17.052Z,97460.25
2022-09-15T03:00:02.000Z,97464.19
2022-09-15T03:02:28.816Z,97464.03
2022-09-15T03:04:55.336Z,97466.63
2022-09-15T03:07:21.767Z,97470.00
2022-09-15T03:09:48.203Z,97472.94
2022-09-15T03:12:14.658Z,97472.56
2022-09-15T03:14:41.106Z,97482.88
2022-09-15T03:17:07.546Z,97473.56
2022-09-15T03:19:33.981Z,97473.25
2022-09-15T03:22:00.447Z,97483.53
2022-09-15T03:24:26.955Z,97474.53
2022-09-15T03:26:53.411Z,97479.75
2022-09-15T03:29:19.939Z,97480.63
2022-09-15T03:31:46.442Z,97481.81
2022-09-15T03:34:13.001Z,97490.19
2022-09-15T03:36:39.611Z,97485.16
2022-09-15T03:39:06.088Z,97484.31
2022-09-15T03:41:32.542Z,97488.38
2022-09-15T03:43:59.080Z,97482.44
2022-09-15T03:46:25.554Z,97485.03
2022-09-15T03:48:51.992Z,97485.75
2022-09-15T03:51:18.479Z,97484.75
2022-09-15T03:53:44.948Z,97487.41
2022-09-15T03:56:22.776Z,97487.41
2022-09-15T03:58:49.963Z,97483.09
2022-09-15T04:01:18.952Z,97487.03
2022-09-15T04:03:50.910Z,97490.97
2022-09-15T04:06:20.779Z,97488.91
2022-09-15T04:08:48.424Z,97481.50
2022-09-15T04:11:16.310Z,97481.63
2022-09-15T04:13:43.937Z,97486.50
2022-09-15T04:16:14.935Z,97489.31
2022-09-15T04:18:41.678Z,97490.84
2022-09-15T04:21:15.861Z,97489.94
2022-09-15T04:23:44.227Z,97491.66
2022-09-15T04:26:24.251Z,97494.09
2022-09-15T04:28:50.684Z,97492.41
2022-09-15T04:31:18.459Z,97486.56
2022-09-15T04:33:46.832Z,97489.25
2022-09-15T04:36:18.163Z,97487.91
2022-09-15T04:38:45.654Z,97493.91
2022-09-15T04:41:13.070Z,97496.69
2022-09-15T04:43:40.418Z,97500.16
2022-09-15T04:46:07.610Z,97502.47
2022-09-15T04:48:35.385Z,97505.22
2022-09-15T04:51:12.268Z,97495.09
2022-09-15T04:53:39.008Z,97500.72
2022-09-15T04:56:17.473Z,97506.88
2022-09-15T04:58:51.376Z,97507.97
2022-09-15T05:01:25.546Z,97510.06
2022-09-15T05:03:52.877Z,97509.63
2022-09-15T05:06:25.235Z,97515.31
2022-09-15T05:08:55.819Z,97512.38
2022-09-15T05:11:23.519Z,97516.84
2022-09-15T05:13:50.107Z,97514.78
2022-09-15T05:16:20.581Z,97514.25
2022-09-15T05:18:49.695Z,97516.34
2022-09-15T05:21:21.860Z,97527.28
2022-09-15T05:23:50.257Z,97525.47
2022-09-15T05:26:22.750Z,97532.53
2022-09-15T05:28:50.067Z,97534.34
2022-09-15T05:31:20.685Z,97533.41
2022-09-15T05:33:49.569Z,97532.97
2022-09-15T05:36:18.428Z,97537.16
2022-09-15T05:38:45.215Z,97532.16
2022-09-15T05:41:17.538Z,97533.41
2022-09-15T05:43:46.516Z,97531.72
2022-09-15T05:46:14.662Z,97545.31
2022-09-15T05:48:41.205Z,97541.97
2022-09-15T05:51:07.921Z,97545.31
2022-09-15T05:53:36.167Z,97545.75
2022-09-15T05:56:07.583Z,97551.31
2022-09-15T05:58:34.457Z,97552.41
2022-09-15T06:01:13.204Z,97551.69
2022-09-15T06:03:40.598Z,97553.47
2022-09-15T06:06:07.527Z,97554.56
2022-09-15T06:08:54.053Z,97550.34
2022-09-15T06:11:27.587Z,97557.78
2022-09-15T06:13:54.112Z,97553.63
2022-09-15T06:16:24.502Z,97543.84
2022-09-15T06:18:53.359Z,97547.75
2022-09-15T06:21:27.722Z,97542.47
2022-09-15T06:23:55.495Z,97549.34
2022-09-15T06:26:22.371Z,97546.94
2022-09-15T06:28:55.555Z,97549.84
2022-09-15T06:31:24.019Z,97553.41
2022-09-15T06:33:53.103Z,97563.41
2022-09-15T06:36:23.100Z,97556.84
2022-09-15T06:38:50.726Z,97563.78
2022-09-15T06:41:17.753Z,97560.84
2022-09-15T06:43:45.367Z,97559.56
2022-09-15T06:46:16.487Z,97562.50
2022-09-15T06:48:48.021Z,97563.56
2022-09-15T06:51:17.387Z,97564.47
2022-09-15T06:53:44.971Z,97558.88
2022-09-15T06:56:15.402Z,97558.97
2022-09-15T06:58:43.898Z,97557.22
2022-09-15T07:01:18.481Z,97566.00
2022-09-15T07:03:45.009Z,97567.88
2022-09-15T07:06:14.807Z,97567.88
2022-09-15T07:08:42.272Z,97574.84
2022-09-15T07:11:10.859Z,97577.88
2022-09-15T07:13:37.637Z,97574.63
2022-09-15T07:16:08.455Z,97575.84
2022-09-15T07:18:39.710Z,97578.72
2022-09-15T07:21:13.954Z,97586.75
2022-09-15T07:23:41.741Z,97590.00
2022-09-15T07:26:22.340Z,97590.22
2022-09-15T07:28:56.182Z,97583.97
2022-09-15T07:31:27.081Z,97595.81
2022-09-15T07:33:53.835Z,97590.38
2022-09-15T07:36:21.379Z,97591.66
2022-09-15T07:38:49.895Z,97594.66
2022-09-15T07:41:20.583Z,97594.34
2022-09-15T07:43:50.506Z,97593.69
2022-09-15T07:46:19.174Z,97603.69
2022-09-15T07:48:47.505Z,97609.53
2022-09-15T07:51:15.000Z,97605.75
2022-09-15T07:53:43.249Z,97608.50
2022-09-15T07:56:09.769Z,97606.34
2022-09-15T07:58:36.221Z,97612.00
2022-09-15T08:01:11.471Z,97610.53
2022-09-15T08:03:43.301Z,97613.88
2022-09-15T08:06:10.917Z,97612.00
2022-09-15T08:08:39.693Z,97609.50
2022-09-15T08:11:18.272Z,97614.19
2022-09-15T08:13:47.841Z,97615.22
2022-09-15T08:16:18.963Z,97620.84
2022-09-15T08:18:45.856Z,97627.97
2022-09-15T08:21:17.474Z,97623.84
2022-09-15T08:23:44.404Z,97627.00
2022-09-15T08:26:14.310Z,97635.47
2022-09-15T08:28:42.418Z,97637.13
2022-09-15T08:31:12.466Z,97640.09
2022-09-15T08:33:44.555Z,97641.78
2022-09-15T08:36:13.159Z,97639.50
2022-09-15T08:38:41.478Z,97644.69
2022-09-15T08:41:17.171Z,97656.66
2022-09-15T08:44:26.511Z,97657.16
2022-09-15T08:47:14.378Z,97655.97
2022-09-15T08:50:10.478Z,97666.13
2022-09-15T08:53:13.905Z,97660.69
2022-09-15T08:55:46.825Z,97659.91
2022-09-15T08:58:17.782Z,97652.47
2022-09-15T09:00:48.554Z,97660.28
2022-09-15T09:04:04.543Z,97654.41
2022-09-15T09:06:52.361Z,97658.94
2022-09-15T09:09:34.527Z,97658.94
2022-09-15T09:12:34.717Z,97658.78
2022-09-15T09:15:32.681Z,97659.94
2022-09-15T09:18:25.815Z,97658.00
2022-09-15T09:21:24.044Z,97659.66
2022-09-15T09:24:22.019Z,97660.31
2022-09-15T09:29:36.651Z,97662.66
2022-09-15T09:32:04.209Z,97668.13
2022-09-15T09:34:47.900Z,97666.13
2022-09-15T09:37:17.027Z,97654.31
2022-09-15T09:39:43.577Z,97653.31
2022-09-15T09:42:18.195Z,97657.31
2022-09-15T09:44:46.143Z,97662.31
2022-09-15T09:47:13.231Z,97657.00
2022-09-15T09:49:48.326Z,97653.66
2022-09-15T09:52:34.235Z,97654.66
2022-09-15T09:55:26.924Z,97653.31
2022-09-15T09:57:54.647Z,97659.66
2022-09-15T10:00:40.272Z,97654.97
2022-09-15T10:03:29.254Z,97656.31
2022-09-15T10:06:20.518Z,97649.16
2022-09-15T10:09:08.783Z,97652.66
2022-09-15T10:11:43.415Z,97649.81
2022-09-15T10:14:40.480Z,97668.94
2022-09-15T10:17:18.797Z,97671.28
2022-09-15T10:19:59.028Z,97669.94
2022-09-15T10:22:37.384Z,97675.13
2022-09-15T10:25:23.720Z,97680.28
2022-09-15T10:28:09.843Z,97677.28
2022-09-15T10:30:37.166Z,97688.25
2022-09-15T10:33:24.723Z,97674.63
2022-09-15T10:35:54.476Z,97671.78
2022-09-15T10:38:49.775Z,97674.63
2022-09-15T10:41:37.582Z,97674.94
2022-09-15T10:44:36.658Z,97663.63
2022-09-15T10:47:18.434Z,97671.13
2022-09-15T10:50:18.931Z,97667.13
2022-09-15T10:53:55.581Z,97677.75
2022-09-15T10:56:34.963Z,97673.28
2022-09-15T10:59:34.078Z,97673.75
2022-09-15T11:02:27.042Z,97674.78
2022-09-15T11:05:12.568Z,97679.41
2022-09-15T11:08:14.070Z,97675.28
2022-09-15T11:11:23.031Z,97668.44
2022-09-15T11:14:27.543Z,97673.09
2022-09-15T11:17:22.372Z,97681.78
2022-09-15T11:20:22.971Z,97681.41
2022-09-15T11:23:11.409Z,97685.59
2022-09-15T11:25:50.771Z,97679.63
2022-09-15T11:28:45.089Z,97687.06
2022-09-15T11:31:24.214Z,97685.72
2022-09-15T11:34:06.898Z,97684.88
2022-09-15T11:36:51.147Z,97682.72
2022-09-15T11:39:29.871Z,97680.56
2022-09-15T11:42:14.050Z,97686.72
2022-09-15T11:44:45.134Z,97686.56
2022-09-15T11:47:26.022Z,97684.03
2022-09-15T11:50:03.323Z,97696.78
2022-09-15T11:53:08.280Z,97702.78
2022-09-15T11:55:47.081Z,97691.88
2022-09-15T11:58:34.595Z,97692.88
2022-09-15T12:01:12.718Z,97697.06
2022-09-15T12:03:52.646Z,97693.75
2022-09-15T12:09:30.419Z,97702.88
2022-09-15T12:12:05.776Z,97698.72
2022-09-15T12:14:43.411Z,97700.88
2022-09-15T12:17:28.760Z,97692.22
2022-09-15T12:20:17.284Z,97690.44
2022-09-15T12:22:59.083Z,97690.41
2022-09-15T12:26:01.211Z,97687.88
2022-09-15T12:28:42.340Z,97689.91
2022-09-15T12:31:41.298Z,97687.00
2022-09-15T12:34:38.324Z,97694.81
2022-09-15T12:37:14.525Z,97697.81
2022-09-15T12:39:46.937Z,97690.34
2022-09-15T12:42:31.241Z,97698.13
2022-09-15T12:45:22.491Z,97699.75
2022-09-15T12:47:54.911Z,97704.06
2022-09-15T12:50:38.314Z,97698.41
2022-09-15T12:53:23.263Z,97705.75
2022-09-15T12:55:58.342Z,97711.13
2022-09-15T12:58:42.021Z,97712.84
2022-09-15T13:01:26.940Z,97712.03
2022-09-15T13:03:57.766Z,97706.88
2022-09-15T13:06:29.603Z,97711.53
2022-09-15T13:09:01.895Z,97711.19
2022-09-15T13:11:36.707Z,97715.53
2022-09-15T13:14:10.514Z,97714.34
2022-09-15T13:17:06.911Z,97716.66
2022-09-15T13:19:33.285Z,97712.88
2022-09-15T13:22:11.830Z,97714.84
2022-09-15T13:25:14.593Z,97713.00
2022-09-15T13:27:58.637Z,97726.50
2022-09-15T13:30:56.793Z,97717.50
2022-09-15T13:40:48.860Z,97715.34
2022-09-15T13:43:53.410Z,97710.69
2022-09-15T13:46:39.473Z,97711.66
2022-09-15T13:49:54.504Z,97708.69
2022-09-15T13:52:22.280Z,97705.84
2022-09-15T13:55:14.472Z,97713.00
2022-09-15T14:00:56.657Z,97718.44
2022-09-15T14:03:36.863Z,97709.25
2022-09-15T14:06:13.560Z,97710.03
2022-09-15T14:08:43.755Z,97709.38
2022-09-15T14:11:21.537Z,97711.72
2022-09-15T14:13:51.366Z,97718.09
2022-09-15T14:16:28.451Z,97715.63
2022-09-15T14:18:58.432Z,97716.63
2022-09-15T14:21:29.503Z,97723.78
2022-09-15T14:24:03.350Z,97712.50
2022-09-15T14:26:33.320Z,97718.16
2022-09-15T14:29:03.688Z,97702.19
2022-09-15T14:31:33.996Z,97715.50
2022-09-15T14:34:02.494Z,97709.53
2022-09-15T14:36:32.684Z,97705.53
2022-09-15T14:39:10.515Z,97710.03
2022-09-15T14:41:40.598Z,97706.38
2022-09-15T14:47:28.473Z,97706.53
2022-09-15T14:50:19.605Z,97705.53
2022-09-15T14:53:08.228Z,97707.56
2022-09-15T14:56:05.623Z,97706.53
2022-09-15T14:58:46.259Z,97721.00
2022-09-15T15:01:31.285Z,97706.53
2022-09-15T15:04:16.415Z,97715.16
2022-09-15T15:07:05.342Z,97711.19
2022-09-15T15:09:51.122Z,97712.19
2022-09-15T15:12:42.047Z,97710.84
2022-09-15T15:15:12.321Z,97718.00
2022-09-15T15:17:51.584Z,97717.13
2022-09-15T15:20:23.855Z,97728.44
2022-09-15T15:23:11.924Z,97733.06
2022-09-15T15:25:39.266Z,97735.28
2022-09-15T15:28:06.544Z,97739.56
2022-09-15T15:30:46.546Z,97743.16
2022-09-15T15:33:27.408Z,97746.31
2022-09-15T15:36:04.305Z,97741.38
2022-09-15T15:38:41.718Z,97741.38
2022-09-15T15:41:33.420Z,97744.53
2022-09-15T15:44:23.725Z,97741.31
2022-09-15T15:47:03.506Z,97739.59
2022-09-15T15:49:32.749Z,97735.06
2022-09-15T15:52:01.684Z,97735.41
2022-09-15T15:54:28.670Z,97750.13
2022-09-15T15:56:55.582Z,97744.66
2022-09-15T15:59:22.110Z,97738.22
2022-09-15T16:01:53.042Z,97736.50
2022-09-15T16:04:19.702Z,97738.50
2022-09-15T16:06:47.005Z,97735.16
2022-09-15T16:09:17.322Z,97733.19
2022-09-15T16:11:43.842Z,97721.88
2022-09-15T16:14:14.164Z,97720.06
2022-09-15T16:16:40.907Z,97719.59
2022-09-15T16:19:08.393Z,97713.63
2022-09-15T16:21:42.315Z,97715.09
2022-09-15T16:24:15.933Z,97719.91
2022-09-15T16:26:43.070Z,97724.19
2022-09-15T16:29:10.005Z,97720.34
2022-09-15T16:31:37.444Z,97724.97
2022-09-15T16:34:04.002Z,97722.44
2022-09-15T16:36:34.893Z,97720.41
2022-09-15T16:39:01.345Z,97720.22
2022-09-15T16:41:27.833Z,97724.41
2022-09-15T16:43:55.860Z,97733.97
2022-09-15T16:46:22.603Z,97722.31
2022-09-15T16:48:49.067Z,97724.94
2022-09-15T16:51:29.517Z,97732.22
2022-09-15T16:53:57.785Z,97724.47
2022-09-15T16:56:24.307Z,97730.09
2022-09-15T16:58:58.854Z,97730.41
2022-09-15T17:01:26.353Z,97721.84
2022-09-15T17:03:52.859Z,97719.53
2022-09-15T17:06:19.399Z,97723.03
2022-09-15T17:08:45.955Z,97720.72
2022-09-15T17:11:17.043Z,97727.69
2022-09-15T17:13:44.770Z,97730.63
2022-09-15T17:16:14.800Z,97724.69
2022-09-15T17:18:41.466Z,97736.94
2022-09-15T17:21:11.585Z,97746.19
2022-09-15T17:23:42.846Z,97749.84
2022-09-15T17:26:20.819Z,97752.13
2022-09-15T17:28:47.625Z,97742.19
2022-09-15T17:31:20.899Z,97744.09
2022-09-15T17:33:49.722Z,97744.53
2022-09-15T17:36:16.722Z,97748.88
2022-09-15T17:38:45.212Z,97750.59
2022-09-15T17:41:15.258Z,97747.75
2022-09-15T17:43:41.852Z,97750.97
2022-09-15T17:46:08.984Z,97749.63
2022-09-15T17:48:38.485Z,97753.38
2022-09-15T17:51:07.032Z,97755.50
2022-09-15T17:53:33.548Z,97758.03
2022-09-15T17:56:00.204Z,97744.69
2022-09-15T17:58:26.834Z,97746.84
2022-09-15T18:00:54.208Z,97748.53
2022-09-15T18:03:29.964Z,97752.94
2022-09-15T18:05:59.450Z,97751.25
2022-09-15T18:08:27.492Z,97752.81
2022-09-15T18:10:54.404Z,97752.72
2022-09-15T18:13:24.166Z,97756.66
2022-09-15T18:15:50.986Z,97762.91
2022-09-15T18:18:21.522Z,97763.50
2022-09-15T18:20:53.009Z,97760.03
2022-09-15T18:23:25.554Z,97761.00
2022-09-15T18:25:52.723Z,97764.50
2022-09-15T18:28:19.758Z,97771.16
2022-09-15T18:30:49.778Z,97769.78
2022-09-15T18:33:25.702Z,97771.19
2022-09-15T18:35:58.850Z,97771.47
2022-09-15T18:38:25.834Z,97771.25
2022-09-15T18:40:55.849Z,97781.13
2022-09-15T18:43:26.653Z,97793.38
2022-09-15T18:45:59.706Z,97789.34
2022-09-15T18:48:26.557Z,97790.22
2022-09-15T18:50:53.346Z,97798.03
2022-09-15T18:53:19.876Z,97797.78
2022-09-15T18:55:46.320Z,97801.38
2022-09-15T18:58:13.423Z,97799.44
2022-09-15T19:00:40.504Z,97801.38
2022-09-15T19:03:09.434Z,97804.31
2022-09-15T19:05:36.953Z,97801.66
2022-09-15T19:08:04.357Z,97802.91
2022-09-15T19:10:31.117Z,97807.38
2022-09-15T19:12:57.655Z,97806.94
2022-09-15T19:15:24.281Z,97814.19
2022-09-15T19:17:51.722Z,97808.47
2022-09-15T19:20:18.751Z,97806.97
2022-09-15T19:22:46.027Z,97819.34
2022-09-15T19:25:12.673Z,97816.41
2022-09-15T19:27:40.183Z,97817.78
2022-09-15T19:30:09.998Z,97818.63
2022-09-15T19:32:38.281Z,97821.69
2022-09-15T19:35:06.359Z,97811.66
2022-09-15T19:37:38.129Z,97815.53
2022-09-15T19:40:09.502Z,97822.91
2022-09-15T19:42:40.626Z,97823.44
2022-09-15T19:45:09.590Z,97820.13
2022-09-15T19:47:36.826Z,97816.50
2022-09-15T19:50:05.574Z,97814.00
2022-09-15T19:52:32.461Z,97820.13
2022-09-15T19:54:58.951Z,97811.88
2022-09-15T19:57:25.459Z,97818.66
2022-09-15T19:59:51.899Z,97813.53
2022-09-15T20:02:18.699Z,97809.97
2022-09-15T20:04:45.375Z,97817.75
2022-09-15T20:07:12.509Z,97818.31
2022-09-15T20:09:39.299Z,97817.63
2022-09-15T20:12:05.962Z,97813.59
2022-09-15T20:14:32.417Z,97819.28
2022-09-15T20:17:01.137Z,97826.50
2022-09-15T20:19:28.498Z,97821.47
2022-09-15T20:21:55.188Z,97827.50
2022-09-15T20:24:23.636Z,97826.75
2022-09-15T20:26:51.098Z,97828.22
2022-09-15T20:29:17.858Z,97824.59
2022-09-15T20:31:44.394Z,97835.31
2022-09-15T20:34:10.847Z,97847.25
2022-09-15T20:36:38.915Z,97841.78
2022-09-15T20:39:12.866Z,97844.59
2022-09-15T20:41:41.886Z,97850.72
2022-09-15T20:44:11.611Z,97851.00
2022-09-15T20:46:38.191Z,97845.97
2022-09-15T20:49:04.973Z,97849.06
2022-09-15T20:51:33.452Z,97850.91
2022-09-15T20:54:03.221Z,97842.72
2022-09-15T20:56:32.831Z,97850.81
2022-09-15T20:59:00.435Z,97851.72
2022-09-15T21:01:36.605Z,97844.28
2022-09-15T21:04:04.007Z,97854.97
2022-09-15T21:06:31.519Z,97851.38
2022-09-15T21:08:58.488Z,97863.25
2022-09-15T21:11:27.554Z,97854.34
2022-09-15T21:13:55.481Z,97850.13
2022-09-15T21:16:26.015Z,97855.38
2022-09-15T21:18:52.797Z,97852.78
2022-09-15T21:21:26.194Z,97847.00
2022-09-15T21:24:00.151Z,97862.50
2022-09-15T21:26:30.824Z,97859.94
2022-09-15T21:28:57.544Z,97860.06
2022-09-15T21:31:30.901Z,97865.72
2022-09-15T21:33:59.342Z,97866.16
2022-09-15T21:36:30.617Z,97868.94
2022-09-15T21:38:59.419Z,97870.41
2022-09-15T21:41:32.493Z,97875.84
2022-09-15T21:44:00.731Z,97871.06
2022-09-15T21:46:31.085Z,97876.13
2022-09-15T21:49:00.195Z,97880.97
2022-09-15T21:51:29.775Z,97879.53
2022-09-15T21:53:59.099Z,97879.19
2022-09-15T21:56:28.086Z,97886.91
2022-09-15T21:58:54.813Z,97884.13
2022-09-15T22:01:31.263Z,97891.94
2022-09-15T22:04:01.699Z,97889.22
2022-09-15T22:06:40.069Z,97890.75
2022-09-15T22:09:12.952Z,97886.63
2022-09-15T22:11:39.668Z,97882.19
2022-09-15T22:14:10.405Z,97874.41
2022-09-15T22:16:39.660Z,97879.69
2022-09-15T22:19:12.303Z,97883.28
2022-09-15T22:21:41.677Z,97882.81
2022-09-15T22:24:12.580Z,97887.66
2022-09-15T22:26:41.418Z,97885.59
2022-09-15T22:29:07.921Z,97887.72
2022-09-15T22:31:35.232Z,97876.78
2022-09-15T22:34:02.609Z,97889.84
2022-09-15T22:36:31.307Z,97880.25
2022-09-15T22:39:05.018Z,97890.00
2022-09-15T22:41:36.423Z,97891.66
2022-09-15T22:44:05.457Z,97893.00
2022-09-15T22:46:32.673Z,97890.16
2022-09-15T22:48:59.667Z,97893.38
2022-09-15T22:51:26.209Z,97893.75
2022-09-15T22:53:54.630Z,97883.91
2022-09-15T22:56:21.425Z,97883.91
2022-09-15T22:58:49.836Z,97887.03
2022-09-15T23:01:23.586Z,97882.28
2022-09-15T23:04:02.005Z,97883.00
2022-09-15T23:06:33.487Z,97883.22
2022-09-15T23:09:08.889Z,97882.41
2022-09-15T23:11:39.654Z,97889.47
2022-09-15T23:14:15.152Z,97890.78
2022-09-15T23:16:42.965Z,97879.06
2022-09-15T23:19:13.264Z,97881.09
2022-09-15T23:21:40.183Z,97888.28
2022-09-15T23:24:08.301Z,97887.78
2022-09-15T23:26:34.812Z,97887.31
2022-09-15T23:29:01.286Z,97890.41
2022-09-15T23:31:27.833Z,97889.13
2022-09-15T23:33:54.329Z,97891.63
2022-09-15T23:36:21.104Z,97891.63
2022-09-15T23:38:48.992Z,97886.09
2022-09-15T23:41:17.565Z,97888.28
2022-09-15T23:43:45.113Z,97886.13
2022-09-15T23:46:11.850Z,97880.16
2022-09-15T23:48:38.419Z,97890.09
2022-09-15T23:51:05.538Z,97882.56
2022-09-15T23:53:32.037Z,97884.97
2022-09-15T23:55:59.797Z,97887.94
2022-09-15T23:58:26.951Z,97896.44
